Time;durP1;ratioP1;P1;durP2;ratioP2;P2;SDS_P1;SDS_P2;PMS_P1;PMS_P2;Temp;Humidity;BMP_temperature;BMP_pressure;BME280_temperature;BME280_humidity;BME280_pressure;Samples;Min_cycle;Max_cycle;Signal;HPM_P1;HPM_P2
2022/03/25 00:02:00;;;;;;;;;;;;;;;18.24;21.41;99974.38;4453612;32;33921;-87
2022/03/25 00:04:28;;;;;;;;;;;;;;;18.16;21.49;99977.06;4466086;32;33475;-88
2022/03/25 00:06:56;;;;;;;;;;;;;;;18.33;21.19;99970.81;4456300;32;33588;-87
2022/03/25 00:09:23;;;;;;;;;;;;;;;18.28;21.33;99978.72;4457566;32;35144;-85
2022/03/25 00:11:51;;;;;;;;;;;;;;;18.12;21.22;99971.84;4466921;32;34211;-85
2022/03/25 00:14:19;;;;;;;;;;;;;;;17.85;21.58;99971.06;4440987;32;34057;-86
2022/03/25 00:16:47;;;;;;;;;;;;;;;17.94;21.89;99971.03;4467815;32;34149;-83
2022/03/25 00:19:15;;;;;;;;;;;;;;;18.09;21.63;99972.72;4453772;32;34011;-87
2022/03/25 00:21:42;;;;;;;;;;;;;;;18.07;21.67;99979.72;4432046;32;33111;-87
2022/03/25 00:24:10;;;;;;;;;;;;;;;18.01;21.49;99969.25;4443150;32;33559;-86
2022/03/25 00:26:38;;;;;;;;;;;;;;;17.82;21.98;99970.22;4483450;32;34350;-85
2022/03/25 00:29:05;;;;;;;;;;;;;;;17.94;21.82;99972.78;4443671;32;33231;-86
2022/03/25 00:31:35;;;;;;;;;;;;;;;18.02;21.72;99964.88;4479022;32;34998;-82
2022/03/25 00:34:02;;;;;;;;;;;;;;;18.01;21.97;99963.13;4454027;32;33033;-88
2022/03/25 00:36:31;;;;;;;;;;;;;;;17.94;21.73;99973.66;4461521;32;34863;-85
2022/03/25 00:39:00;;;;;;;;;;;;;;;17.90;21.72;99966.66;4452590;32;35346;-89
2022/03/25 00:41:28;;;;;;;;;;;;;;;17.84;21.88;99963.19;4457726;32;34284;-88
2022/03/25 00:43:56;;;;;;;;;;;;;;;17.83;21.69;99957.06;4467743;32;34035;-88
2022/03/25 00:46:23;;;;;;;;;;;;;;;17.91;21.81;99965.78;4467616;32;34926;-88
2022/03/25 00:48:51;;;;;;;;;;;;;;;17.98;21.67;99964.88;4452749;32;34092;-88
2022/03/25 00:51:18;;;;;;;;;;;;;;;17.94;21.66;99962.28;4452283;32;34034;-87
2022/03/25 00:53:47;;;;;;;;;;;;;;;17.98;21.81;99958.78;4458036;32;33364;-88
2022/03/25 00:56:15;;;;;;;;;;;;;;;17.86;21.81;99961.44;4460151;32;33806;-88
2022/03/25 00:58:42;;;;;;;;;;;;;;;17.77;22.06;99966.72;4467790;32;35216;-88
2022/03/25 01:01:09;;;;;;;;;;;;;;;17.67;22.37;99961.47;4466339;32;33838;-87
2022/03/25 01:03:37;;;;;;;;;;;;;;;17.72;22.12;99970.19;4466852;32;33946;-87
2022/03/25 01:06:04;;;;;;;;;;;;;;;17.61;22.20;99963.25;4459417;32;33911;-87
2022/03/25 01:08:31;;;;;;;;;;;;;;;17.43;22.47;99961.56;4454929;32;34294;-86
2022/03/25 01:11:00;;;;;;;;;;;;;;;17.41;22.19;99960.69;4459062;32;33967;-86
2022/03/25 01:13:33;;;;;;;;;;;;;;;17.23;21.87;99956.34;4460003;32;34340;-87
2022/03/25 01:16:01;;;;;;;;;;;;;;;17.15;21.92;99956.34;4451827;32;34254;-87
2022/03/25 01:18:30;;;;;;;;;;;;;;;16.62;22.37;99956.34;4464931;32;34021;-87
2022/03/25 01:20:58;;;;;;;;;;;;;;;16.87;22.21;99952.03;4464204;32;34420;-80
2022/03/25 01:23:25;;;;;;;;;;;;;;;16.57;22.16;99958.09;4463037;32;33335;-82
2022/03/25 01:25:53;;;;;;;;;;;;;;;16.45;22.38;99953.72;4444665;32;34169;-88
2022/03/25 01:28:20;;;;;;;;;;;;;;;16.56;22.11;99961.59;4465286;32;35275;-87
2022/03/25 01:30:48;;;;;;;;;;;;;;;16.65;22.13;99958.97;4451674;32;34904;-86
2022/03/25 01:33:15;;;;;;;;;;;;;;;16.63;22.16;99955.47;4459387;32;33289;-87
2022/03/25 01:35:42;;;;;;;;;;;;;;;16.42;22.51;99959.81;4465079;32;33849;-86
2022/03/25 01:38:10;;;;;;;;;;;;;;;16.60;22.79;99973.81;4452273;32;34250;-87
2022/03/25 01:40:37;;;;;;;;;;;;;;;16.40;22.64;99966.81;4466787;32;33898;-88
2022/03/25 01:43:05;;;;;;;;;;;;;;;16.38;22.60;99976.38;4460003;32;32906;-88
2022/03/25 01:45:37;;;;;;;;;;;;;;;16.56;22.63;99979.91;4456168;32;34277;-88
2022/03/25 01:48:11;;;;;;;;;;;;;;;16.38;22.73;99971.13;4458198;32;34504;-79
2022/03/25 01:50:39;;;;;;;;;;;;;;;16.40;22.94;99972.03;4455991;32;34328;-88
2022/03/25 01:53:11;;;;;;;;;;;;;;;16.48;22.98;99974.66;4452914;32;34195;-88
2022/03/25 01:55:38;;;;;;;;;;;;;;;16.18;23.10;99981.56;4463841;32;33621;-89
2022/03/25 01:58:06;;;;;;;;;;;;;;;16.12;23.12;99986.78;4460489;32;35230;-88
2022/03/25 02:00:34;;;;;;;;;;;;;;;16.25;23.01;99983.34;4437284;32;32805;-88
2022/03/25 02:03:01;;;;;;;;;;;;;;;16.24;22.76;99986.78;4451602;32;33774;-86
2022/03/25 02:05:29;;;;;;;;;;;;;;;16.33;22.73;99978.13;4438457;32;34268;-88
2022/03/25 02:07:58;;;;;;;;;;;;;;;16.49;22.43;99982.50;4451332;32;34411;-88
2022/03/25 02:10:25;;;;;;;;;;;;;;;16.28;22.76;99972.84;4451375;32;34948;-88
2022/03/25 02:12:52;;;;;;;;;;;;;;;16.15;23.54;99986.78;4455529;32;34230;-87
2022/03/25 02:15:30;;;;;;;;;;;;;;;16.33;23.28;99983.34;4455080;32;35093;-88
2022/03/25 02:18:10;;;;;;;;;;;;;;;16.25;23.23;99988.56;4458789;32;34388;-84
2022/03/25 02:20:38;;;;;;;;;;;;;;;16.21;23.25;99992.06;4441278;32;34261;-88
2022/03/25 02:23:06;;;;;;;;;;;;;;;16.24;23.53;99993.78;4437871;32;33612;-87
2022/03/25 02:25:33;;;;;;;;;;;;;;;16.19;23.51;100000.75;4450553;32;34329;-89
2022/03/25 02:28:01;;;;;;;;;;;;;;;16.10;23.94;99998.09;4458444;32;35171;-87
2022/03/25 02:30:31;;;;;;;;;;;;;;;16.04;23.85;100001.56;4449053;32;34985;-87
2022/03/25 02:33:01;;;;;;;;;;;;;;;16.17;23.57;100005.97;4463699;32;34078;-86
2022/03/25 02:35:38;;;;;;;;;;;;;;;16.01;23.84;100004.16;4448333;32;33691;-84
2022/03/25 02:38:06;;;;;;;;;;;;;;;15.92;24.41;100009.38;4458449;32;34176;-87
2022/03/25 02:40:33;;;;;;;;;;;;;;;16.05;23.96;100001.56;4452680;32;34233;-87
2022/03/25 02:43:01;;;;;;;;;;;;;;;15.78;24.23;100011.91;4463202;32;33347;-83
2022/03/25 02:45:29;;;;;;;;;;;;;;;16.01;24.25;100009.41;4459716;32;33305;-86
2022/03/25 02:47:58;;;;;;;;;;;;;;;16.10;24.17;100013.78;4460791;32;34273;-87
2022/03/25 02:50:26;;;;;;;;;;;;;;;15.97;24.41;100011.13;4460171;32;35038;-85
2022/03/25 02:52:54;;;;;;;;;;;;;;;16.14;24.10;100021.66;4446385;32;34261;-87
2022/03/25 02:55:21;;;;;;;;;;;;;;;16.07;24.32;100021.62;4455187;32;33894;-87
2022/03/25 02:57:48;;;;;;;;;;;;;;;16.17;24.14;100026.00;4447271;32;33776;-87
2022/03/25 03:00:15;;;;;;;;;;;;;;;16.14;24.17;100026.00;4454894;32;34912;-86
2022/03/25 03:02:43;;;;;;;;;;;;;;;16.02;24.46;100030.34;4454815;32;33407;-86
2022/03/25 03:05:10;;;;;;;;;;;;;;;16.06;24.31;100028.59;4467041;32;35182;-82
2022/03/25 03:07:37;;;;;;;;;;;;;;;16.10;24.37;100024.25;4456393;32;33872;-87
2022/03/25 03:10:05;;;;;;;;;;;;;;;16.22;24.14;100030.41;4456280;32;35163;-87
2022/03/25 03:12:33;;;;;;;;;;;;;;;16.33;23.87;100026.94;4468655;32;33673;-85
2022/03/25 03:15:00;;;;;;;;;;;;;;;16.40;24.09;100032.22;4459457;32;33926;-87
2022/03/25 03:17:27;;;;;;;;;;;;;;;16.22;23.98;100030.41;4467976;32;35299;-87
2022/03/25 03:19:55;;;;;;;;;;;;;;;16.20;24.09;100031.28;4467064;32;34510;-86
2022/03/25 03:22:22;;;;;;;;;;;;;;;16.21;24.25;100035.62;4466931;32;34802;-85
2022/03/25 03:24:49;;;;;;;;;;;;;;;16.26;24.15;100036.53;4465226;32;35046;-84
2022/03/25 03:27:17;;;;;;;;;;;;;;;16.33;23.90;100033.06;4439937;32;34116;-86
2022/03/25 03:29:44;;;;;;;;;;;;;;;16.03;24.18;100029.47;4471001;32;33737;-85
2022/03/25 03:32:11;;;;;;;;;;;;;;;15.94;24.40;100037.25;4468443;32;33025;-88
2022/03/25 03:34:39;;;;;;;;;;;;;;;16.16;24.21;100035.59;4461815;32;34137;-87
2022/03/25 03:37:08;;;;;;;;;;;;;;;16.05;24.12;100032.94;4460780;32;35359;-88
2022/03/25 03:39:35;;;;;;;;;;;;;;;15.99;24.30;100042.53;4453070;32;34296;-86
2022/03/25 03:42:03;;;;;;;;;;;;;;;15.92;24.61;100039.00;4477864;32;34065;-87
2022/03/25 03:44:30;;;;;;;;;;;;;;;16.07;24.46;100025.12;4469066;32;34048;-87
2022/03/25 03:46:57;;;;;;;;;;;;;;;16.09;24.46;100032.97;4463997;32;34403;-87
2022/03/25 03:49:24;;;;;;;;;;;;;;;16.02;24.49;100030.34;4448377;32;34192;-86
2022/03/25 03:51:52;;;;;;;;;;;;;;;15.99;24.57;100030.31;4464890;32;34261;-87
2022/03/25 03:54:19;;;;;;;;;;;;;;;15.65;24.86;100033.59;4456282;32;35043;-87
2022/03/25 03:56:46;;;;;;;;;;;;;;;15.67;25.17;100039.72;4462248;32;35189;-87
2022/03/25 03:59:14;;;;;;;;;;;;;;;15.81;25.12;100038.94;4467505;32;35325;-86
2022/03/25 04:01:41;;;;;;;;;;;;;;;16.14;24.53;100036.47;4462415;32;34420;-87
2022/03/25 04:04:08;;;;;;;;;;;;;;;15.97;24.65;100033.78;4467258;32;35189;-87
2022/03/25 04:06:36;;;;;;;;;;;;;;;15.93;24.57;100035.50;4458527;32;34535;-86
2022/03/25 04:09:03;;;;;;;;;;;;;;;15.94;24.54;100032.03;4457918;32;35033;-87
2022/03/25 04:11:30;;;;;;;;;;;;;;;15.99;24.45;100030.31;4456939;32;34209;-87
2022/03/25 04:13:57;;;;;;;;;;;;;;;16.04;24.41;100027.72;4452472;32;34069;-87
2022/03/25 04:16:24;;;;;;;;;;;;;;;15.89;24.41;100035.50;4459950;32;34296;-87
2022/03/25 04:18:52;;;;;;;;;;;;;;;15.96;24.39;100027.69;4454983;32;34107;-83
2022/03/25 04:21:19;;;;;;;;;;;;;;;15.97;24.47;100026.81;4460703;32;33309;-87
2022/03/25 04:23:47;;;;;;;;;;;;;;;15.97;24.44;100026.81;4467641;32;34697;-86
2022/03/25 04:26:14;;;;;;;;;;;;;;;15.76;24.60;100022.38;4460267;32;34154;-86
2022/03/25 04:28:41;;;;;;;;;;;;;;;15.84;24.49;100027.63;4455646;32;34803;-87
2022/03/25 04:31:09;;;;;;;;;;;;;;;15.79;24.44;100030.19;4467684;32;34214;-85
2022/03/25 04:33:37;;;;;;;;;;;;;;;15.83;24.55;100020.63;4462901;32;34266;-86
2022/03/25 04:36:04;;;;;;;;;;;;;;;15.68;24.68;100026.69;4444919;32;34472;-86
2022/03/25 04:38:31;;;;;;;;;;;;;;;15.58;24.81;100030.94;4456772;32;34360;-87
2022/03/25 04:40:58;;;;;;;;;;;;;;;15.57;24.95;100030.94;4460529;32;33449;-86
2022/03/25 04:43:25;;;;;;;;;;;;;;;15.56;25.21;100032.66;4462731;32;34041;-86
2022/03/25 04:45:53;;;;;;;;;;;;;;;15.52;25.31;100033.50;4463191;32;34279;-86
2022/03/25 04:48:20;;;;;;;;;;;;;;;15.53;25.05;100027.44;4455721;32;34418;-87
2022/03/25 04:50:47;;;;;;;;;;;;;;;15.60;25.14;100033.53;4452855;32;33895;-86
2022/03/25 04:53:14;;;;;;;;;;;;;;;15.63;25.11;100038.78;4467567;32;34904;-86
2022/03/25 04:55:42;;;;;;;;;;;;;;;15.69;25.08;100038.88;4461979;32;34529;-87
2022/03/25 04:58:09;;;;;;;;;;;;;;;15.66;25.05;100045.81;4442760;32;34213;-87
2022/03/25 05:00:37;;;;;;;;;;;;;;;15.60;25.14;100043.13;4465284;32;33506;-85
2022/03/25 05:03:05;;;;;;;;;;;;;;;15.69;25.08;100043.25;4458312;32;34677;-87
2022/03/25 05:05:33;;;;;;;;;;;;;;;15.67;25.25;100037.97;4465474;32;34424;-86
2022/03/25 05:08:01;;;;;;;;;;;;;;;15.81;25.02;100043.28;4465155;32;34939;-88
2022/03/25 05:10:28;;;;;;;;;;;;;;;16.18;24.97;100038.25;4449796;32;33070;-87
2022/03/25 05:13:15;;;;;;;;;;;;;;;16.42;24.56;100040.94;4455251;32;34287;-88
2022/03/25 05:15:43;;;;;;;;;;;;;;;16.56;24.61;100043.59;4454799;32;34557;-88
2022/03/25 05:18:10;;;;;;;;;;;;;;;16.79;24.10;100041.06;4452596;32;34061;-85
2022/03/25 05:20:37;;;;;;;;;;;;;;;16.91;23.92;100042.81;4447154;32;33517;-87
2022/03/25 05:23:05;;;;;;;;;;;;;;;17.09;23.59;100039.34;4464410;32;34106;-87
2022/03/25 05:25:34;;;;;;;;;;;;;;;17.15;23.60;100040.19;4467222;32;35273;-88
2022/03/25 05:28:01;;;;;;;;;;;;;;;17.33;23.35;100041.94;4464998;32;34301;-84
2022/03/25 05:30:29;;;;;;;;;;;;;;;17.49;23.17;100046.28;4450097;32;34368;-87
2022/03/25 05:32:57;;;;;;;;;;;;;;;17.34;23.37;100043.69;4454796;32;33661;-86
2022/03/25 05:35:25;;;;;;;;;;;;;;;17.16;23.66;100048.94;4447828;32;34933;-86
2022/03/25 05:37:53;;;;;;;;;;;;;;;17.48;23.14;100047.19;4453213;32;34578;-88
2022/03/25 05:40:20;;;;;;;;;;;;;;;17.50;23.12;100052.41;4451418;32;33123;-88
2022/03/25 05:42:48;;;;;;;;;;;;;;;17.69;23.05;100051.53;4451869;32;34348;-87
2022/03/25 05:45:17;;;;;;;;;;;;;;;17.67;23.18;100057.66;4457288;32;35126;-87
2022/03/25 05:47:44;;;;;;;;;;;;;;;17.66;23.15;100054.16;4459689;32;33755;-87
2022/03/25 05:50:11;;;;;;;;;;;;;;;17.67;23.21;100055.03;4451648;32;33314;-87
2022/03/25 05:52:40;;;;;;;;;;;;;;;17.71;23.17;100055.00;4458711;32;34064;-80
2022/03/25 05:55:07;;;;;;;;;;;;;;;17.84;22.88;100055.91;4453528;32;34508;-87
2022/03/25 05:57:35;;;;;;;;;;;;;;;17.59;23.41;100054.16;4454592;32;33892;-88
2022/03/25 06:00:04;;;;;;;;;;;;;;;17.60;23.55;100046.28;4466448;32;33621;-88
2022/03/25 06:02:38;;;;;;;;;;;;;;;17.70;23.32;100049.78;4454866;32;32365;-87
2022/03/25 06:05:06;;;;;;;;;;;;;;;17.69;23.49;100050.63;4453489;32;34257;-86
2022/03/25 06:07:38;;;;;;;;;;;;;;;17.95;23.49;100051.47;4466465;32;33589;-87
2022/03/25 06:10:05;;;;;;;;;;;;;;;17.83;23.59;100056.75;4446082;32;33314;-85
2022/03/25 06:12:33;;;;;;;;;;;;;;;17.64;23.52;100057.66;4452116;32;35156;-85
2022/03/25 06:15:00;;;;;;;;;;;;;;;17.89;23.21;100054.13;4452121;32;35370;-85
2022/03/25 06:17:27;;;;;;;;;;;;;;;18.02;23.09;100059.34;4455168;32;34244;-80
2022/03/25 06:19:55;;;;;;;;;;;;;;;17.97;22.92;100057.59;4462883;32;34042;-79
2022/03/25 06:22:24;;;;;;;;;;;;;;;17.49;22.80;100053.28;4457125;32;35033;-86
2022/03/25 06:24:52;;;;;;;;;;;;;;;18.05;22.84;100057.56;4452521;32;34168;-86
2022/03/25 06:27:19;;;;;;;;;;;;;;;17.93;23.33;100057.63;4451354;32;34452;-85
2022/03/25 06:29:46;;;;;;;;;;;;;;;17.96;23.45;100058.47;4451083;32;32735;-85
2022/03/25 06:32:13;;;;;;;;;;;;;;;17.58;23.35;100062.88;4451344;32;34098;-85
2022/03/25 06:34:41;;;;;;;;;;;;;;;17.72;23.45;100063.75;4455192;32;35449;-86
2022/03/25 06:37:08;;;;;;;;;;;;;;;17.56;23.35;100065.53;4468669;32;34467;-85
2022/03/25 06:39:35;;;;;;;;;;;;;;;17.46;23.71;100064.66;4467255;32;33436;-84
2022/03/25 06:42:03;;;;;;;;;;;;;;;17.24;23.51;100068.19;4453214;32;34599;-80
2022/03/25 06:44:30;;;;;;;;;;;;;;;17.66;23.18;100066.41;4455667;32;34377;-80
2022/03/25 06:46:57;;;;;;;;;;;;;;;17.43;23.28;100063.81;4453497;32;34273;-80
2022/03/25 06:49:25;;;;;;;;;;;;;;;16.44;23.84;100078.47;4453288;32;33319;-80
2022/03/25 06:51:52;;;;;;;;;;;;;;;16.39;23.43;100077.56;4452875;32;33666;-80
2022/03/25 06:54:19;;;;;;;;;;;;;;;16.91;23.27;100075.13;4439147;32;35184;-80
2022/03/25 06:56:47;;;;;;;;;;;;;;;16.96;22.94;100076.00;4452759;32;34171;-80
2022/03/25 06:59:15;;;;;;;;;;;;;;;16.09;23.66;100090.50;4452822;32;32852;-80
2022/03/25 07:01:43;;;;;;;;;;;;;;;16.77;23.59;100082.06;4453098;32;35081;-80
2022/03/25 07:04:11;;;;;;;;;;;;;;;16.39;23.61;100090.66;4453024;32;35460;-80
2022/03/25 07:06:38;;;;;;;;;;;;;;;17.33;22.79;100088.25;4453128;32;34925;-80
2022/03/25 07:09:06;;;;;;;;;;;;;;;17.01;22.86;100087.38;4453047;32;33071;-80
2022/03/25 07:11:36;;;;;;;;;;;;;;;16.64;23.58;100096.00;4453067;32;34888;-80
2022/03/25 07:14:03;;;;;;;;;;;;;;;16.99;23.07;100091.72;4452714;32;33826;-80
2022/03/25 07:16:31;;;;;;;;;;;;;;;16.97;22.97;100101.34;4452944;32;33991;-80
2022/03/25 07:19:01;;;;;;;;;;;;;;;16.63;23.44;100100.34;4452954;32;33264;-80
2022/03/25 07:21:29;;;;;;;;;;;;;;;17.10;23.30;100096.97;4452929;32;35120;-80
2022/03/25 07:23:56;;;;;;;;;;;;;;;16.87;23.37;100103.94;4452877;32;35127;-80
2022/03/25 07:26:23;;;;;;;;;;;;;;;16.93;23.21;100089.13;4452869;32;34189;-80
2022/03/25 07:28:51;;;;;;;;;;;;;;;16.98;23.51;100095.22;4452742;32;33090;-80
2022/03/25 07:31:18;;;;;;;;;;;;;;;17.14;23.22;100097.84;4453078;32;33614;-80
2022/03/25 07:33:46;;;;;;;;;;;;;;;16.90;23.47;100104.81;4452796;32;34557;-80
2022/03/25 07:36:15;;;;;;;;;;;;;;;16.83;23.52;100110.03;4452870;32;34124;-80
2022/03/25 07:38:42;;;;;;;;;;;;;;;15.13;25.66;100103.72;4452946;32;33547;-80
2022/03/25 07:41:10;;;;;;;;;;;;;;;16.21;24.85;100111.50;4452492;32;34240;-81
2022/03/25 07:43:38;;;;;;;;;;;;;;;17.11;23.65;100106.56;4452408;32;34338;-80
2022/03/25 07:46:06;;;;;;;;;;;;;;;17.11;23.53;100110.94;4452488;32;33978;-80
2022/03/25 07:48:39;;;;;;;;;;;;;;;17.73;22.74;100097.84;4427157;32;32862;-80
2022/03/25 07:51:08;;;;;;;;;;;;;;;17.45;22.93;100104.84;4453126;32;33830;-81
2022/03/25 07:53:35;;;;;;;;;;;;;;;18.17;22.21;100107.38;4452541;32;34590;-80
2022/03/25 07:56:02;;;;;;;;;;;;;;;18.18;22.55;100109.16;4452292;32;33987;-80
2022/03/25 07:58:30;;;;;;;;;;;;;;;18.18;22.36;100108.25;4452361;32;34149;-79
2022/03/25 08:00:57;;;;;;;;;;;;;;;18.54;21.92;100106.38;4452727;32;34275;-80
2022/03/25 08:03:25;;;;;;;;;;;;;;;18.42;21.40;100099.44;4452551;32;34121;-80
2022/03/25 08:05:52;;;;;;;;;;;;;;;18.76;21.42;100112.44;4452441;32;35088;-80
2022/03/25 08:08:19;;;;;;;;;;;;;;;19.44;20.61;100104.06;4438732;32;32720;-80
2022/03/25 08:10:47;;;;;;;;;;;;;;;19.42;20.89;100100.56;4452717;32;34104;-81
2022/03/25 08:13:16;;;;;;;;;;;;;;;18.93;21.05;100108.81;4438611;32;34032;-80
2022/03/25 08:15:43;;;;;;;;;;;;;;;19.27;20.65;100099.81;4438786;32;35070;-80
2022/03/25 08:18:10;;;;;;;;;;;;;;;19.42;20.46;100097.06;4452316;32;33323;-81
2022/03/25 08:20:41;;;;;;;;;;;;;;;19.74;20.50;100091.56;4452068;32;34072;-80
2022/03/25 08:23:11;;;;;;;;;;;;;;;19.66;20.48;100091.66;4452429;32;35213;-80
2022/03/25 08:28:25;;;;;;;;;;;;;;;18.83;21.96;100104.50;4440867;32;33344;-80
2022/03/25 08:30:52;;;;;;;;;;;;;;;19.29;21.36;100088.41;4452103;32;34985;-80
2022/03/25 08:33:22;;;;;;;;;;;;;;;19.47;21.29;100102.28;4452337;32;35270;-81
2022/03/25 08:35:49;;;;;;;;;;;;;;;19.29;20.83;100096.31;4452456;32;35202;-80
2022/03/25 08:38:16;;;;;;;;;;;;;;;20.24;19.94;100095.41;4451934;32;33292;-80
2022/03/25 08:40:44;;;;;;;;;;;;;;;19.52;20.80;100100.50;4451385;32;34854;-81
2022/03/25 08:43:31;;;;;;;;;;;;;;;19.67;20.21;100092.50;4440443;32;35244;-80
2022/03/25 08:45:58;;;;;;;;;;;;;;;19.64;20.23;100095.16;4452313;32;35011;-80
2022/03/25 08:48:26;;;;;;;;;;;;;;;20.04;20.19;100102.63;4452321;32;34213;-80
2022/03/25 08:50:54;;;;;;;;;;;;;;;19.84;20.47;100100.22;4452362;32;33971;-81
2022/03/25 08:53:21;;;;;;;;;;;;;;;20.17;19.93;100106.91;4452177;32;34812;-81
2022/03/25 08:55:48;;;;;;;;;;;;;;;19.83;20.13;100101.13;4436779;32;34018;-80
2022/03/25 08:58:15;;;;;;;;;;;;;;;19.80;19.76;100096.75;4451926;32;34046;-80
2022/03/25 09:00:43;;;;;;;;;;;;;;;20.13;19.42;100110.47;4452240;32;34905;-81
2022/03/25 09:03:10;;;;;;;;;;;;;;;20.28;19.50;100105.00;4452214;32;36015;-80
2022/03/25 09:05:38;;;;;;;;;;;;;;;20.05;19.53;100107.03;4452065;32;35079;-80
2022/03/25 09:08:06;;;;;;;;;;;;;;;19.63;20.12;100103.94;4452255;32;34162;-80
2022/03/25 09:10:33;;;;;;;;;;;;;;;20.34;19.09;100099.69;4451979;32;34288;-81
2022/03/25 09:13:01;;;;;;;;;;;;;;;18.35;21.04;100109.09;4452092;32;33869;-80
2022/03/25 09:15:29;;;;;;;;;;;;;;;19.32;20.24;100103.28;4452146;32;35121;-80
2022/03/25 09:17:56;;;;;;;;;;;;;;;20.26;19.08;100101.50;4452154;32;34302;-80
2022/03/25 09:20:23;;;;;;;;;;;;;;;18.86;20.22;100106.22;4451963;32;33770;-82
2022/03/25 09:22:53;;;;;;;;;;;;;;;18.82;20.34;100102.75;4452094;32;34538;-80
2022/03/25 09:25:23;;;;;;;;;;;;;;;19.25;20.31;100101.63;4452034;32;34588;-80
2022/03/25 09:27:50;;;;;;;;;;;;;;;19.89;19.82;100101.06;4452043;32;33539;-80
2022/03/25 09:30:23;;;;;;;;;;;;;;;21.29;18.83;100100.09;4451995;32;34572;-81
2022/03/25 09:33:02;;;;;;;;;;;;;;;19.33;20.17;100095.41;4436617;32;34147;-80
2022/03/25 09:35:36;;;;;;;;;;;;;;;20.30;19.16;100103.22;4438359;32;35074;-81
2022/03/25 09:38:04;;;;;;;;;;;;;;;19.72;19.78;100093.31;4451774;32;33194;-80
2022/03/25 09:40:32;;;;;;;;;;;;;;;19.03;20.67;100093.00;4438171;32;34986;-81
2022/03/25 09:42:59;;;;;;;;;;;;;;;20.21;19.87;100095.44;4451927;32;34816;-80
2022/03/25 09:45:27;;;;;;;;;;;;;;;20.56;19.44;100086.25;4451742;32;35258;-80
2022/03/25 09:47:55;;;;;;;;;;;;;;;20.18;19.97;100088.44;4451975;32;33893;-80
2022/03/25 09:50:23;;;;;;;;;;;;;;;18.99;20.82;100086.91;4451931;32;34130;-81
2022/03/25 09:52:51;;;;;;;;;;;;;;;20.51;19.53;100093.34;4451623;32;34231;-80
2022/03/25 09:55:40;;;;;;;;;;;;;;;21.49;18.58;100086.66;4451735;32;34520;-80
2022/03/25 09:58:18;;;;;;;;;;;;;;;21.89;17.75;100078.84;4437784;32;33552;-80
2022/03/25 10:00:49;;;;;;;;;;;;;;;20.99;18.96;100067.22;4451833;32;34690;-81
2022/03/25 10:03:32;;;;;;;;;;;;;;;21.01;18.97;100068.03;4451493;32;34218;-80
2022/03/25 10:06:01;;;;;;;;;;;;;;;19.78;19.62;100066.97;4451615;32;34400;-80
2022/03/25 10:08:40;;;;;;;;;;;;;;;21.08;18.53;100069.69;4450860;32;33226;-80
2022/03/25 10:11:19;;;;;;;;;;;;;;;21.32;18.42;100061.37;4437792;32;35129;-80
2022/03/25 10:13:47;;;;;;;;;;;;;;;20.97;18.50;100058.44;4451293;32;34220;-80
2022/03/25 10:16:30;;;;;;;;;;;;;;;21.34;18.41;100051.72;4437478;32;34134;-80
2022/03/25 10:18:58;;;;;;;;;;;;;;;21.16;18.53;100054.63;4437591;32;33359;-80
2022/03/25 10:21:25;;;;;;;;;;;;;;;21.42;18.28;100054.22;4451416;32;34216;-80
2022/03/25 10:23:52;;;;;;;;;;;;;;;20.62;19.08;100044.03;4451028;32;35110;-81
2022/03/25 10:26:20;;;;;;;;;;;;;;;21.68;18.39;100037.06;4451326;32;34391;-80
2022/03/25 10:28:47;;;;;;;;;;;;;;;22.39;17.72;100042.69;4451134;32;34206;-80
2022/03/25 10:31:17;;;;;;;;;;;;;;;22.78;16.91;100038.28;4451278;32;34907;-80
2022/03/25 10:33:46;;;;;;;;;;;;;;;22.00;17.84;100028.50;4437388;32;34776;-81
2022/03/25 10:36:14;;;;;;;;;;;;;;;22.38;17.31;100022.44;4437127;32;33996;-80
2022/03/25 10:38:48;;;;;;;;;;;;;;;22.19;17.52;100027.25;4437161;32;34284;-81
2022/03/25 10:41:23;;;;;;;;;;;;;;;22.32;17.70;100028.75;4450847;32;34483;-80
2022/03/25 10:44:02;;;;;;;;;;;;;;;22.76;16.96;100024.19;4451141;32;34248;-81
2022/03/25 10:46:40;;;;;;;;;;;;;;;21.36;18.17;100023.53;4450762;32;34931;-80
2022/03/25 10:49:08;;;;;;;;;;;;;;;22.36;17.11;100023.41;4451000;32;34691;-80
2022/03/25 10:51:36;;;;;;;;;;;;;;;22.03;17.27;100024.03;4436861;32;34903;-80
2022/03/25 10:54:07;;;;;;;;;;;;;;;21.92;18.16;100025.12;4450777;32;34111;-81
2022/03/25 10:56:47;;;;;;;;;;;;;;;21.60;17.86;100018.72;4451033;32;34450;-80
2022/03/25 10:59:25;;;;;;;;;;;;;;;21.24;17.64;100021.06;4450722;32;34126;-81
2022/03/25 11:01:53;;;;;;;;;;;;;;;22.55;16.46;100006.22;4436705;32;33975;-80
2022/03/25 11:04:21;;;;;;;;;;;;;;;22.07;17.05;100014.25;4450548;32;33953;-80
2022/03/25 11:06:49;;;;;;;;;;;;;;;21.38;17.75;100018.25;4450778;32;34190;-80
2022/03/25 11:09:17;;;;;;;;;;;;;;;21.35;18.23;100008.59;4450609;32;34909;-80
2022/03/25 11:11:47;;;;;;;;;;;;;;;21.18;18.11;100007.16;4450772;32;34721;-81
2022/03/25 11:14:15;;;;;;;;;;;;;;;21.46;18.39;100010.19;4436821;32;34379;-80
2022/03/25 11:16:43;;;;;;;;;;;;;;;21.24;18.32;100009.66;4450517;32;35190;-80
2022/03/25 11:19:10;;;;;;;;;;;;;;;20.81;18.67;100005.97;4450560;32;33258;-80
2022/03/25 11:21:41;;;;;;;;;;;;;;;20.23;19.59;100012.06;4452683;32;34969;-80
2022/03/25 11:24:12;;;;;;;;;;;;;;;20.53;19.53;100005.53;4453082;32;35261;-80
2022/03/25 11:26:40;;;;;;;;;;;;;;;21.45;18.61;100000.53;4438714;32;35292;-80
2022/03/25 11:29:11;;;;;;;;;;;;;;;21.92;18.33;99994.31;4438985;32;34119;-81
2022/03/25 11:31:58;;;;;;;;;;;;;;;20.97;18.80;99987.28;4438979;32;34203;-80
2022/03/25 11:34:26;;;;;;;;;;;;;;;20.45;19.02;99988.03;4452702;32;34004;-80
2022/03/25 11:37:12;;;;;;;;;;;;;;;21.06;18.53;99984.47;4452932;32;33986;-80
2022/03/25 11:39:40;;;;;;;;;;;;;;;22.36;17.20;99981.13;4452883;32;33590;-80
2022/03/25 11:42:07;;;;;;;;;;;;;;;22.64;17.30;99971.63;4438805;32;34034;-80
2022/03/25 11:44:34;;;;;;;;;;;;;;;21.99;18.61;99972.19;4438813;32;34477;-81
2022/03/25 11:47:02;;;;;;;;;;;;;;;22.14;17.95;99978.94;4452831;32;34040;-80
2022/03/25 11:49:30;;;;;;;;;;;;;;;21.40;19.20;99978.63;4452698;32;32746;-80
2022/03/25 11:51:57;;;;;;;;;;;;;;;22.44;18.36;99971.25;4452590;32;34701;-80
2022/03/25 11:54:41;;;;;;;;;;;;;;;23.58;16.75;99971.94;4439005;32;34518;-80
2022/03/25 11:57:24;;;;;;;;;;;;;;;22.48;17.86;99959.69;4438440;32;34943;-80
2022/03/25 11:59:52;;;;;;;;;;;;;;;23.21;17.49;99962.31;4452762;32;33296;-80
2022/03/25 12:02:30;;;;;;;;;;;;;;;22.26;17.86;99957.53;4452447;32;34931;-80
2022/03/25 12:04:58;;;;;;;;;;;;;;;22.23;17.75;99954.09;4452614;32;34092;-80
2022/03/25 12:07:26;;;;;;;;;;;;;;;21.75;18.03;99949.81;4452563;32;34289;-80
2022/03/25 12:09:53;;;;;;;;;;;;;;;22.90;16.95;99951.62;4452571;32;33223;-80
2022/03/25 12:12:40;;;;;;;;;;;;;;;23.16;16.44;99956.28;4452587;32;35221;-80
2022/03/25 12:15:10;;;;;;;;;;;;;;;23.39;16.78;99953.91;4452399;32;33497;-80
2022/03/25 12:17:38;;;;;;;;;;;;;;;22.66;17.32;99943.41;4452246;32;34187;-80
2022/03/25 12:20:05;;;;;;;;;;;;;;;21.86;17.63;99946.94;4452448;32;34403;-80
2022/03/25 12:22:34;;;;;;;;;;;;;;;22.05;17.78;99958.00;4448221;32;33180;-84
2022/03/25 12:25:08;;;;;;;;;;;;;;;22.15;17.70;99948.13;4467961;32;35329;-84
2022/03/25 12:27:36;;;;;;;;;;;;;;;22.56;17.38;99933.94;4453609;32;34775;-80
2022/03/25 12:30:03;;;;;;;;;;;;;;;22.64;17.71;99936.41;4453475;32;33445;-80
2022/03/25 12:32:31;;;;;;;;;;;;;;;22.46;16.91;99927.13;4453516;32;35519;-84
2022/03/25 12:35:09;;;;;;;;;;;;;;;23.08;16.28;99943.28;4460299;32;35211;-80
2022/03/25 12:37:40;;;;;;;;;;;;;;;23.38;15.82;99935.44;4458205;32;34808;-82
2022/03/25 12:40:19;;;;;;;;;;;;;;;22.38;16.83;99924.69;4467726;32;34043;-81
2022/03/25 12:42:50;;;;;;;;;;;;;;;21.50;17.47;99938.00;4467724;32;35110;-80
2022/03/25 12:45:18;;;;;;;;;;;;;;;22.09;16.60;99927.97;4467693;32;34385;-80
2022/03/25 12:47:48;;;;;;;;;;;;;;;22.67;15.66;99917.84;4453406;32;34789;-81
2022/03/25 12:50:16;;;;;;;;;;;;;;;22.64;16.24;99924.06;4467831;32;33331;-81
2022/03/25 12:52:43;;;;;;;;;;;;;;;23.29;14.96;99915.34;4467546;32;33993;-80